createdAt,value
2022-11-06T00:00:55.539Z,998.11
2022-11-06T00:01:55.611Z,998.18
2022-11-06T00:02:55.606Z,998.13
2022-11-06T00:03:55.522Z,998.12
2022-11-06T00:04:55.523Z,998.06
2022-11-06T00:05:55.506Z,998.07
2022-11-06T00:06:55.525Z,997.97
2022-11-06T00:07:55.548Z,998.09
2022-11-06T00:08:55.493Z,997.95
2022-11-06T00:09:55.476Z,997.98
2022-11-06T00:10:55.465Z,998.03
2022-11-06T00:11:55.545Z,998.00
2022-11-06T00:12:55.452Z,997.96
2022-11-06T00:13:55.453Z,997.97
2022-11-06T00:14:55.446Z,997.94
2022-11-06T00:15:55.434Z,997.96
2022-11-06T00:16:55.458Z,997.86
2022-11-06T00:17:55.419Z,997.89
2022-11-06T00:18:55.407Z,997.89
2022-11-06T00:19:55.409Z,997.84
2022-11-06T00:20:55.410Z,997.77
2022-11-06T00:21:55.540Z,997.86
2022-11-06T00:22:55.380Z,997.77
2022-11-06T00:23:55.398Z,997.72
2022-11-06T00:24:55.367Z,997.71
2022-11-06T00:25:55.358Z,997.76
2022-11-06T00:26:55.406Z,997.79
2022-11-06T00:27:55.353Z,997.76
2022-11-06T00:28:55.340Z,997.73
2022-11-06T00:29:55.331Z,997.78
2022-11-06T00:30:55.368Z,997.69
2022-11-06T00:31:55.344Z,997.78
2022-11-06T00:32:55.316Z,997.74
2022-11-06T00:33:55.303Z,997.82
2022-11-06T00:34:55.300Z,997.77
2022-11-06T00:35:55.296Z,997.73
2022-11-06T00:36:55.283Z,997.74
2022-11-06T00:37:55.321Z,997.70
2022-11-06T00:38:55.265Z,997.80
2022-11-06T00:39:55.257Z,997.71
2022-11-06T00:40:55.259Z,997.69
2022-11-06T00:41:55.245Z,997.68
2022-11-06T00:42:55.268Z,997.71
2022-11-06T00:43:55.230Z,997.72
2022-11-06T00:44:55.217Z,997.69
2022-11-06T00:45:55.222Z,997.69
2022-11-06T00:46:55.202Z,997.70
2022-11-06T00:47:55.225Z,997.73
2022-11-06T00:48:56.001Z,997.75
2022-11-06T00:49:55.183Z,997.85
2022-11-06T00:50:55.170Z,997.79
2022-11-06T00:51:55.173Z,997.86
2022-11-06T00:52:55.182Z,997.83
2022-11-06T00:53:55.156Z,997.74
2022-11-06T00:54:55.153Z,997.81
2022-11-06T00:55:55.135Z,997.80
2022-11-06T00:56:55.148Z,997.75
2022-11-06T00:57:55.163Z,997.75
2022-11-06T00:58:55.118Z,997.70
2022-11-06T00:59:55.127Z,997.79
2022-11-06T01:00:55.117Z,997.74
2022-11-06T01:01:55.196Z,997.77
2022-11-06T01:02:55.257Z,997.74
2022-11-06T01:03:55.090Z,997.77
2022-11-06T01:04:55.093Z,997.71
2022-11-06T01:05:55.066Z,997.77
2022-11-06T01:06:55.068Z,997.78
2022-11-06T01:07:55.083Z,997.69
2022-11-06T01:08:55.042Z,997.74
2022-11-06T01:09:55.039Z,997.84
2022-11-06T01:10:55.036Z,997.82
2022-11-06T01:12:57.045Z,997.87
2022-11-06T01:13:55.016Z,997.84
2022-11-06T01:14:54.999Z,997.84
2022-11-06T01:15:55.002Z,997.90
2022-11-06T01:16:54.990Z,997.87
2022-11-06T01:17:55.012Z,997.82
2022-11-06T01:18:54.969Z,997.82
2022-11-06T01:19:54.962Z,997.75
2022-11-06T01:20:54.954Z,997.83
2022-11-06T01:21:54.946Z,997.74
2022-11-06T01:22:54.977Z,997.77
2022-11-06T01:23:54.933Z,997.84
2022-11-06T01:24:55.010Z,997.79
2022-11-06T01:25:54.922Z,997.78
2022-11-06T01:27:56.926Z,997.77
2022-11-06T01:28:54.891Z,997.77
2022-11-06T01:29:54.894Z,997.72
2022-11-06T01:30:54.884Z,997.74
2022-11-06T01:31:54.873Z,997.77
2022-11-06T01:32:54.904Z,997.71
2022-11-06T01:33:54.854Z,997.73
2022-11-06T01:34:54.904Z,997.75
2022-11-06T01:35:54.838Z,997.69
2022-11-06T01:36:54.847Z,997.71
2022-11-06T01:37:54.853Z,997.71
2022-11-06T01:38:54.827Z,997.65
2022-11-06T01:39:54.811Z,997.62
2022-11-06T01:40:54.810Z,997.61
2022-11-06T01:41:54.930Z,997.63
2022-11-06T01:42:54.815Z,997.68
2022-11-06T01:43:54.787Z,997.60
2022-11-06T01:44:54.793Z,997.61
2022-11-06T01:45:54.769Z,997.58
2022-11-06T01:46:54.767Z,997.58
2022-11-06T01:47:54.779Z,997.59
2022-11-06T01:48:54.742Z,997.56
2022-11-06T01:49:54.751Z,997.55
2022-11-06T01:50:54.735Z,997.45
2022-11-06T01:51:54.718Z,997.44
2022-11-06T01:52:54.788Z,997.40
2022-11-06T01:53:54.712Z,997.44
2022-11-06T01:54:54.709Z,997.45
2022-11-06T01:55:54.718Z,997.38
2022-11-06T01:56:54.690Z,997.38
2022-11-06T01:57:54.741Z,997.42
2022-11-06T01:58:54.675Z,997.38
2022-11-06T01:59:54.662Z,997.36
2022-11-06T02:00:54.645Z,997.32
2022-11-06T02:01:55.787Z,997.27
2022-11-06T02:02:54.803Z,997.30
2022-11-06T02:03:54.643Z,997.35
2022-11-06T02:04:54.630Z,997.33
2022-11-06T02:05:54.619Z,997.32
2022-11-06T02:06:54.607Z,997.36
2022-11-06T02:07:54.639Z,997.31
2022-11-06T02:08:54.597Z,997.27
2022-11-06T02:09:54.589Z,997.27
2022-11-06T02:10:54.591Z,997.30
2022-11-06T02:11:54.619Z,997.30
2022-11-06T02:12:54.599Z,997.28
2022-11-06T02:13:54.615Z,997.33
2022-11-06T02:14:54.561Z,997.32
2022-11-06T02:15:54.544Z,997.38
2022-11-06T02:16:54.532Z,997.37
2022-11-06T02:17:54.529Z,997.36
2022-11-06T02:18:54.545Z,997.37
2022-11-06T02:19:54.514Z,997.34
2022-11-06T02:20:54.508Z,997.35
2022-11-06T02:21:54.504Z,997.36
2022-11-06T02:22:54.520Z,997.36
2022-11-06T02:23:54.487Z,997.44
2022-11-06T02:24:54.480Z,997.42
2022-11-06T02:25:54.478Z,997.43
2022-11-06T02:26:54.467Z,997.39
2022-11-06T02:27:54.481Z,997.43
2022-11-06T02:28:54.466Z,997.43
2022-11-06T02:29:54.523Z,997.43
2022-11-06T02:30:54.459Z,997.43
2022-11-06T02:31:54.450Z,997.46
2022-11-06T02:32:54.481Z,997.43
2022-11-06T02:33:54.415Z,997.42
2022-11-06T02:34:54.414Z,997.41
2022-11-06T02:35:54.400Z,997.37
2022-11-06T02:36:54.427Z,997.31
2022-11-06T02:37:54.415Z,997.26
2022-11-06T02:38:54.377Z,997.37
2022-11-06T02:39:54.371Z,997.34
2022-11-06T02:40:54.370Z,997.34
2022-11-06T02:41:54.355Z,997.33
2022-11-06T02:42:54.377Z,997.38
2022-11-06T02:43:54.351Z,997.33
2022-11-06T02:44:54.334Z,997.33
2022-11-06T02:45:54.372Z,997.31
2022-11-06T02:46:54.331Z,997.28
2022-11-06T02:47:54.345Z,997.36
2022-11-06T02:48:54.303Z,997.24
2022-11-06T02:49:54.305Z,997.32
2022-11-06T02:50:55.236Z,997.23
2022-11-06T02:51:54.284Z,997.22
2022-11-06T02:52:54.372Z,997.21
2022-11-06T02:53:54.278Z,997.17
2022-11-06T02:54:54.280Z,997.19
2022-11-06T02:55:54.250Z,997.16
2022-11-06T02:56:54.245Z,997.18
2022-11-06T02:57:54.265Z,997.21
2022-11-06T02:58:54.235Z,997.19
2022-11-06T02:59:54.225Z,997.17
2022-11-06T03:00:54.220Z,997.14
2022-11-06T03:01:54.328Z,997.18
2022-11-06T03:02:54.412Z,997.16
2022-11-06T03:03:54.196Z,997.12
2022-11-06T03:04:54.197Z,997.15
2022-11-06T03:05:54.193Z,997.11
2022-11-06T03:06:54.197Z,997.09
2022-11-06T03:07:54.163Z,997.11
2022-11-06T03:08:54.159Z,997.13
2022-11-06T03:09:54.156Z,997.09
2022-11-06T03:10:54.170Z,997.12
2022-11-06T03:11:54.168Z,997.07
2022-11-06T03:12:54.134Z,997.06
2022-11-06T03:13:54.147Z,997.04
2022-11-06T03:14:54.117Z,997.08
2022-11-06T03:15:54.119Z,997.07
2022-11-06T03:16:54.099Z,997.15
2022-11-06T03:17:54.121Z,997.12
2022-11-06T03:18:54.090Z,997.08
2022-11-06T03:19:54.079Z,997.12
2022-11-06T03:20:54.079Z,997.14
2022-11-06T03:21:54.071Z,997.07
2022-11-06T03:22:54.093Z,996.99
2022-11-06T03:23:54.053Z,996.99
2022-11-06T03:24:54.042Z,997.03
2022-11-06T03:25:54.039Z,996.95
2022-11-06T03:26:54.031Z,997.01
2022-11-06T03:27:54.051Z,997.03
2022-11-06T03:28:54.015Z,997.02
2022-11-06T03:29:54.014Z,997.10
2022-11-06T03:30:54.010Z,997.00
2022-11-06T03:31:53.993Z,997.02
2022-11-06T03:32:54.023Z,997.01
2022-11-06T03:33:54.049Z,997.00
2022-11-06T03:34:53.976Z,996.97
2022-11-06T03:35:53.966Z,996.93
2022-11-06T03:36:54.020Z,996.96
2022-11-06T03:37:53.966Z,996.97
2022-11-06T03:38:53.940Z,997.01
2022-11-06T03:39:53.954Z,996.92
2022-11-06T03:40:53.924Z,996.92
2022-11-06T03:41:53.944Z,996.94
2022-11-06T03:42:53.934Z,996.93
2022-11-06T03:43:53.895Z,996.93
2022-11-06T03:44:53.930Z,996.99
2022-11-06T03:45:53.886Z,996.92
2022-11-06T03:46:53.898Z,996.91
2022-11-06T03:47:53.888Z,996.89
2022-11-06T03:48:53.861Z,996.94
2022-11-06T03:49:53.867Z,996.97
2022-11-06T03:50:53.848Z,996.96
2022-11-06T03:51:53.863Z,996.97
2022-11-06T03:52:53.831Z,996.92
2022-11-06T03:53:53.829Z,996.99
2022-11-06T03:54:53.831Z,996.91
2022-11-06T03:55:53.827Z,996.88
2022-11-06T03:56:53.825Z,996.90
2022-11-06T03:57:53.799Z,996.85
2022-11-06T03:58:53.823Z,996.83
2022-11-06T03:59:53.829Z,996.88
2022-11-06T04:00:53.782Z,996.87
2022-11-06T04:01:53.857Z,996.89
2022-11-06T04:02:53.867Z,996.89
2022-11-06T04:03:53.748Z,996.91
2022-11-06T04:04:53.768Z,996.91
2022-11-06T04:05:53.860Z,996.85
2022-11-06T04:07:37.663Z,996.81
2022-11-06T04:07:53.716Z,996.88
2022-11-06T04:08:53.718Z,996.90
2022-11-06T04:09:53.701Z,996.90
2022-11-06T04:10:54.700Z,996.89
2022-11-06T04:11:53.710Z,996.82
2022-11-06T04:12:54.683Z,996.88
2022-11-06T04:13:53.681Z,996.90
2022-11-06T04:14:53.676Z,996.89
2022-11-06T04:15:53.662Z,996.97
2022-11-06T04:16:53.676Z,996.98
2022-11-06T04:17:53.644Z,996.91
2022-11-06T04:18:53.634Z,996.96
2022-11-06T04:19:53.685Z,997.04
2022-11-06T04:20:53.619Z,997.01
2022-11-06T04:21:53.672Z,996.98
2022-11-06T04:22:53.598Z,996.98
2022-11-06T04:23:53.603Z,996.97
2022-11-06T04:24:53.598Z,996.94
2022-11-06T04:25:53.589Z,996.92
2022-11-06T04:26:53.651Z,996.96
2022-11-06T04:27:53.589Z,996.91
2022-11-06T04:28:53.581Z,996.82
2022-11-06T04:29:53.560Z,996.81
2022-11-06T04:30:53.553Z,996.86
2022-11-06T04:31:53.573Z,996.80
2022-11-06T04:32:59.657Z,996.84
2022-11-06T04:33:55.526Z,996.82
2022-11-06T04:34:53.523Z,996.78
2022-11-06T04:35:53.533Z,996.79
2022-11-06T04:36:53.538Z,996.81
2022-11-06T04:37:53.629Z,996.79
2022-11-06T04:38:53.522Z,996.75
2022-11-06T04:39:53.512Z,996.76
2022-11-06T04:40:53.476Z,996.75
2022-11-06T04:41:53.495Z,996.81
2022-11-06T04:42:53.460Z,996.73
2022-11-06T04:43:53.452Z,996.78
2022-11-06T04:44:53.447Z,996.69
2022-11-06T04:45:53.447Z,996.72
2022-11-06T04:46:53.458Z,996.56
2022-11-06T04:47:53.435Z,996.63
2022-11-06T04:48:53.424Z,996.56
2022-11-06T04:49:53.413Z,996.64
2022-11-06T04:50:53.403Z,996.54
2022-11-06T04:51:53.455Z,996.55
2022-11-06T04:52:53.394Z,996.58
2022-11-06T04:53:53.456Z,996.52
2022-11-06T04:54:53.369Z,996.52
2022-11-06T04:55:53.365Z,996.61
2022-11-06T04:56:53.384Z,996.56
2022-11-06T04:57:53.369Z,996.47
2022-11-06T04:58:53.344Z,996.50
2022-11-06T04:59:53.346Z,996.46
2022-11-06T05:00:53.416Z,996.48
2022-11-06T05:01:53.475Z,996.47
2022-11-06T05:02:53.316Z,996.41
2022-11-06T05:03:53.299Z,996.45
2022-11-06T05:04:53.327Z,996.45
2022-11-06T05:05:53.293Z,996.38
2022-11-06T05:06:53.306Z,996.39
2022-11-06T05:07:53.296Z,996.37
2022-11-06T05:08:53.262Z,996.41
2022-11-06T05:09:53.273Z,996.44
2022-11-06T05:10:53.249Z,996.48
2022-11-06T05:11:53.275Z,996.45
2022-11-06T05:12:53.238Z,996.44
2022-11-06T05:13:53.230Z,996.37
2022-11-06T05:14:53.217Z,996.36
2022-11-06T05:15:53.219Z,996.38
2022-11-06T05:16:53.243Z,996.44
2022-11-06T05:17:53.194Z,996.36
2022-11-06T05:18:53.210Z,996.42
2022-11-06T05:19:53.189Z,996.35
2022-11-06T05:20:53.173Z,996.39
2022-11-06T05:21:53.202Z,996.46
2022-11-06T05:22:53.160Z,996.44
2022-11-06T05:23:53.158Z,996.51
2022-11-06T05:24:53.183Z,996.46
2022-11-06T05:25:53.150Z,996.51
2022-11-06T05:26:58.829Z,996.61
2022-11-06T05:27:55.122Z,996.63
2022-11-06T05:28:53.115Z,996.66
2022-11-06T05:29:53.114Z,996.62
2022-11-06T05:30:53.096Z,996.67
2022-11-06T05:31:53.113Z,996.61
2022-11-06T05:32:53.094Z,996.66
2022-11-06T05:33:53.083Z,996.58
2022-11-06T05:34:53.075Z,996.56
2022-11-06T05:35:53.063Z,996.69
2022-11-06T05:36:53.095Z,996.63
2022-11-06T05:37:53.057Z,996.64
2022-11-06T05:38:53.042Z,996.63
2022-11-06T05:39:53.057Z,996.53
2022-11-06T05:40:53.054Z,996.58
2022-11-06T05:41:53.042Z,996.61
2022-11-06T05:42:53.007Z,996.65
2022-11-06T05:43:53.013Z,996.57
2022-11-06T05:44:52.991Z,996.71
2022-11-06T05:45:52.986Z,996.72
2022-11-06T05:46:53.022Z,996.70
2022-11-06T05:47:52.990Z,996.76
2022-11-06T05:48:52.959Z,996.77
2022-11-06T05:49:52.951Z,996.76
2022-11-06T05:50:52.968Z,996.79
2022-11-06T05:51:52.933Z,996.79
2022-11-06T05:52:52.965Z,996.82
2022-11-06T05:53:52.920Z,996.86
2022-11-06T05:54:52.919Z,996.77
2022-11-06T05:55:52.913Z,996.76
2022-11-06T05:56:52.901Z,996.79
2022-11-06T05:57:52.989Z,996.82
2022-11-06T05:58:52.925Z,996.82
2022-11-06T05:59:52.882Z,996.81
2022-11-06T06:00:52.877Z,996.84
2022-11-06T06:01:52.928Z,996.76
2022-11-06T06:02:52.917Z,996.65
2022-11-06T06:03:52.849Z,996.70
2022-11-06T06:04:52.865Z,996.68
2022-11-06T06:05:52.839Z,996.60
2022-11-06T06:06:52.836Z,996.60
2022-11-06T06:07:52.876Z,996.62
2022-11-06T06:08:52.848Z,996.63
2022-11-06T06:09:52.816Z,996.56
2022-11-06T06:10:52.804Z,996.61
2022-11-06T06:11:52.803Z,996.60
2022-11-06T06:12:52.820Z,996.57
2022-11-06T06:13:52.785Z,996.58
2022-11-06T06:14:52.775Z,996.59
2022-11-06T06:15:52.761Z,996.53
2022-11-06T06:16:53.657Z,996.64
2022-11-06T06:17:52.774Z,996.69
2022-11-06T06:18:52.737Z,996.64
2022-11-06T06:19:52.731Z,996.61
2022-11-06T06:20:52.722Z,996.65
2022-11-06T06:21:52.736Z,996.60
2022-11-06T06:22:52.753Z,996.63
2022-11-06T06:23:52.698Z,996.60
2022-11-06T06:24:52.731Z,996.56
2022-11-06T06:25:52.679Z,996.57
2022-11-06T06:26:52.679Z,996.62
2022-11-06T06:27:52.693Z,996.54
2022-11-06T06:28:52.649Z,996.56
2022-11-06T06:29:53.649Z,996.50
2022-11-06T06:30:57.151Z,996.51
2022-11-06T06:31:53.632Z,996.51
2022-11-06T06:32:52.719Z,996.52
2022-11-06T06:33:52.625Z,996.48
2022-11-06T06:34:52.618Z,996.51
2022-11-06T06:35:52.617Z,996.48
2022-11-06T06:36:52.609Z,996.44
2022-11-06T06:37:52.616Z,996.47
2022-11-06T06:38:52.582Z,996.46
2022-11-06T06:39:52.583Z,996.45
2022-11-06T06:40:52.576Z,996.40
2022-11-06T06:41:52.560Z,996.44
2022-11-06T06:42:52.587Z,996.42
2022-11-06T06:43:52.550Z,996.39
2022-11-06T06:44:52.539Z,996.37
2022-11-06T06:45:52.537Z,996.39
2022-11-06T06:46:52.528Z,996.40
2022-11-06T06:47:52.558Z,996.37
2022-11-06T06:48:52.512Z,996.39
2022-11-06T06:49:52.527Z,996.39
2022-11-06T06:50:52.496Z,996.32
2022-11-06T06:51:52.481Z,996.29
2022-11-06T06:52:52.511Z,996.29
2022-11-06T06:53:52.477Z,996.23
2022-11-06T06:54:52.477Z,996.23
2022-11-06T06:55:52.454Z,996.21
2022-11-06T06:56:52.447Z,996.23
2022-11-06T06:57:52.481Z,996.18
2022-11-06T06:58:52.433Z,996.12
2022-11-06T06:59:52.420Z,996.11
2022-11-06T07:00:52.515Z,996.21
2022-11-06T07:01:52.579Z,996.19
2022-11-06T07:02:52.408Z,996.19
2022-11-06T07:03:52.426Z,996.16
2022-11-06T07:04:52.382Z,996.17
2022-11-06T07:05:52.383Z,996.16
2022-11-06T07:06:52.422Z,996.12
2022-11-06T07:07:52.363Z,996.13
2022-11-06T07:08:52.401Z,996.19
2022-11-06T07:09:52.361Z,996.21
2022-11-06T07:10:52.341Z,996.17
2022-11-06T07:11:52.336Z,996.20
2022-11-06T07:12:52.320Z,996.21
2022-11-06T07:13:52.345Z,996.16
2022-11-06T07:14:52.305Z,996.11
2022-11-06T07:15:52.325Z,996.17
2022-11-06T07:16:53.935Z,996.15
2022-11-06T07:17:53.284Z,996.06
2022-11-06T07:18:52.313Z,996.13
2022-11-06T07:19:52.267Z,996.12
2022-11-06T07:20:52.273Z,996.02
2022-11-06T07:21:52.262Z,995.96
2022-11-06T07:22:52.250Z,996.02
2022-11-06T07:23:52.281Z,996.10
2022-11-06T07:24:52.232Z,996.07
2022-11-06T07:25:52.220Z,996.10
2022-11-06T07:26:52.217Z,996.04
2022-11-06T07:27:52.213Z,996.17
2022-11-06T07:28:52.226Z,996.08
2022-11-06T07:29:52.196Z,996.12
2022-11-06T07:30:52.211Z,996.01
2022-11-06T07:31:52.173Z,996.13
2022-11-06T07:32:52.175Z,996.01
2022-11-06T07:33:52.260Z,996.09
2022-11-06T07:34:52.162Z,995.99
2022-11-06T07:35:52.150Z,996.20
2022-11-06T07:36:52.142Z,996.06
2022-11-06T07:37:52.144Z,996.10
2022-11-06T07:38:52.157Z,996.09
2022-11-06T07:39:52.123Z,996.07
2022-11-06T07:40:52.121Z,996.10
2022-11-06T07:41:52.106Z,996.03
2022-11-06T07:42:52.129Z,996.09
2022-11-06T07:43:52.120Z,996.14
2022-11-06T07:44:52.091Z,996.05
2022-11-06T07:45:52.081Z,996.10
2022-11-06T07:46:52.078Z,996.15
2022-11-06T07:47:55.171Z,996.13
2022-11-06T07:48:54.080Z,996.07
2022-11-06T07:49:52.053Z,996.15
2022-11-06T07:50:52.041Z,996.09
2022-11-06T07:51:52.063Z,996.16
2022-11-06T07:52:52.026Z,996.06
2022-11-06T07:53:52.022Z,996.01
2022-11-06T07:54:52.046Z,996.06
2022-11-06T07:55:52.008Z,996.11
2022-11-06T07:56:51.999Z,996.01
2022-11-06T07:57:52.016Z,996.07
2022-11-06T07:58:51.981Z,996.01
2022-11-06T07:59:51.999Z,996.05
2022-11-06T08:00:52.028Z,996.08
2022-11-06T08:01:52.065Z,996.04
2022-11-06T08:02:51.956Z,996.02
2022-11-06T08:03:51.971Z,996.01
2022-11-06T08:04:51.934Z,996.00
2022-11-06T08:05:51.951Z,996.03
2022-11-06T08:06:51.919Z,996.03
2022-11-06T08:07:51.922Z,996.01
2022-11-06T08:08:57.674Z,996.02
2022-11-06T08:09:53.901Z,995.99
2022-11-06T08:10:51.890Z,996.03
2022-11-06T08:11:51.888Z,995.87
2022-11-06T08:12:51.875Z,995.91
2022-11-06T08:13:51.897Z,995.83
2022-11-06T08:14:51.887Z,995.92
2022-11-06T08:15:51.853Z,995.93
2022-11-06T08:16:51.892Z,995.84
2022-11-06T08:17:51.838Z,995.85
2022-11-06T08:18:51.939Z,995.92
2022-11-06T08:19:51.834Z,995.83
2022-11-06T08:20:51.849Z,995.89
2022-11-06T08:21:51.805Z,995.89
2022-11-06T08:22:51.798Z,995.96
2022-11-06T08:23:51.848Z,995.95
2022-11-06T08:24:51.819Z,995.96
2022-11-06T08:25:51.783Z,995.91
2022-11-06T08:26:51.771Z,995.96
2022-11-06T08:27:51.762Z,995.87
2022-11-06T08:28:51.754Z,995.95
2022-11-06T08:29:51.778Z,995.90
2022-11-06T08:30:51.732Z,995.91
2022-11-06T08:31:51.735Z,995.94
2022-11-06T08:32:51.764Z,995.95
2022-11-06T08:33:51.714Z,995.92
2022-11-06T08:34:51.744Z,995.93
2022-11-06T08:35:51.696Z,995.92
2022-11-06T08:36:51.691Z,995.94
2022-11-06T08:37:51.681Z,995.86
2022-11-06T08:38:51.766Z,995.94
2022-11-06T08:39:51.731Z,995.90
2022-11-06T08:40:53.773Z,995.92
2022-11-06T08:41:52.661Z,995.79
2022-11-06T08:42:51.717Z,995.77
2022-11-06T08:43:51.640Z,995.79
2022-11-06T08:44:51.680Z,995.73
2022-11-06T08:45:51.629Z,995.81
2022-11-06T08:46:52.261Z,995.78
2022-11-06T08:47:52.613Z,995.77
2022-11-06T08:48:51.602Z,995.82
2022-11-06T08:49:51.642Z,995.84
2022-11-06T08:50:51.582Z,995.77
2022-11-06T08:51:51.578Z,995.78
2022-11-06T08:52:51.580Z,995.77
2022-11-06T08:53:51.644Z,995.73
2022-11-06T08:54:51.614Z,995.70
2022-11-06T08:55:51.547Z,995.74
2022-11-06T08:56:51.542Z,995.70
2022-11-06T08:57:51.527Z,995.68
2022-11-06T08:58:55.366Z,995.69
2022-11-06T08:59:52.544Z,995.71
2022-11-06T09:00:51.579Z,995.73
2022-11-06T09:01:51.664Z,995.70
2022-11-06T09:02:51.494Z,995.71
2022-11-06T09:03:52.493Z,995.62
2022-11-06T09:04:51.524Z,995.73
2022-11-06T09:05:51.473Z,995.68
2022-11-06T09:06:51.530Z,995.64
2022-11-06T09:07:51.463Z,995.68
2022-11-06T09:08:51.463Z,995.56
2022-11-06T09:09:52.317Z,995.58
2022-11-06T09:10:57.266Z,995.61
2022-11-06T09:11:53.505Z,995.58
2022-11-06T09:12:51.418Z,995.59
2022-11-06T09:13:51.423Z,995.55
2022-11-06T09:14:51.502Z,995.53
2022-11-06T09:15:51.398Z,995.51
2022-11-06T09:16:51.395Z,995.55
2022-11-06T09:17:51.393Z,995.47
2022-11-06T09:18:51.383Z,995.52
2022-11-06T09:19:51.396Z,995.52
2022-11-06T09:20:51.361Z,995.53
2022-11-06T09:21:54.743Z,995.50
2022-11-06T09:22:52.337Z,995.44
2022-11-06T09:23:51.337Z,995.48
2022-11-06T09:25:03.323Z,995.53
2022-11-06T09:25:53.340Z,995.55
2022-11-06T09:26:51.308Z,995.56
2022-11-06T09:27:57.292Z,995.57
2022-11-06T09:28:53.295Z,995.57
2022-11-06T09:29:51.311Z,995.56
2022-11-06T09:30:51.283Z,995.63
2022-11-06T09:31:51.269Z,995.58
2022-11-06T09:32:51.259Z,995.61
2022-11-06T09:33:51.268Z,995.58
2022-11-06T09:34:51.275Z,995.60
2022-11-06T09:35:51.244Z,995.52
2022-11-06T09:36:51.234Z,995.57
2022-11-06T09:37:51.242Z,995.48
2022-11-06T09:38:51.221Z,995.53
2022-11-06T09:39:51.249Z,995.58
2022-11-06T09:40:51.211Z,995.50
2022-11-06T09:41:51.205Z,995.50
2022-11-06T09:42:51.248Z,995.51
2022-11-06T09:44:04.770Z,995.38
2022-11-06T09:44:53.240Z,995.45
2022-11-06T09:45:54.895Z,995.48
2022-11-06T09:46:52.162Z,995.38
2022-11-06T09:47:51.173Z,995.39
2022-11-06T09:48:51.159Z,995.44
2022-11-06T09:49:51.176Z,995.35
2022-11-06T09:50:51.166Z,995.39
2022-11-06T09:51:51.127Z,995.39
2022-11-06T09:52:51.134Z,995.40
2022-11-06T09:53:51.111Z,995.31
2022-11-06T09:54:56.119Z,995.37
2022-11-06T09:55:53.117Z,995.39
2022-11-06T09:56:51.083Z,995.32
2022-11-06T09:57:51.080Z,995.25
2022-11-06T09:58:51.080Z,995.32
2022-11-06T09:59:51.065Z,995.25
2022-11-06T10:00:51.198Z,995.12
2022-11-06T10:01:51.184Z,995.10
2022-11-06T10:02:51.185Z,995.10
2022-11-06T10:03:51.041Z,995.07
2022-11-06T10:04:51.024Z,995.07
2022-11-06T10:05:51.047Z,994.97
2022-11-06T10:06:51.007Z,994.94
2022-11-06T10:07:51.005Z,994.93
2022-11-06T10:08:51.021Z,994.96
2022-11-06T10:09:50.992Z,994.94
2022-11-06T10:10:51.007Z,994.95
2022-11-06T10:11:50.970Z,994.89
2022-11-06T10:12:50.969Z,994.93
2022-11-06T10:13:50.988Z,994.84
2022-11-06T10:14:50.955Z,994.83
2022-11-06T10:15:50.991Z,994.82
2022-11-06T10:16:50.957Z,994.87
2022-11-06T10:17:50.927Z,994.86
2022-11-06T10:18:50.918Z,994.84
2022-11-06T10:19:50.957Z,994.78
2022-11-06T10:20:50.983Z,994.85
2022-11-06T10:21:50.957Z,994.82
2022-11-06T10:22:50.956Z,994.86
2022-11-06T10:23:50.923Z,994.80
2022-11-06T10:24:51.866Z,994.67
2022-11-06T10:25:50.888Z,994.79
2022-11-06T10:26:50.863Z,994.79
2022-11-06T10:27:50.848Z,994.81
2022-11-06T10:28:50.839Z,994.79
2022-11-06T10:29:50.896Z,994.80
2022-11-06T10:30:50.854Z,994.77
2022-11-06T10:31:50.873Z,994.78
2022-11-06T10:32:50.834Z,994.73
2022-11-06T10:33:50.821Z,994.66
2022-11-06T10:34:50.805Z,994.73
2022-11-06T10:35:50.806Z,994.77
2022-11-06T10:36:50.804Z,994.69
2022-11-06T10:37:50.772Z,994.78
2022-11-06T10:38:50.762Z,994.74
2022-11-06T10:39:50.756Z,994.69
2022-11-06T10:40:50.770Z,994.74
2022-11-06T10:41:50.746Z,994.63
2022-11-06T10:42:50.733Z,994.61
2022-11-06T10:43:50.733Z,994.56
2022-11-06T10:44:50.755Z,994.51
2022-11-06T10:45:50.739Z,994.52
2022-11-06T10:46:50.700Z,994.52
2022-11-06T10:47:50.698Z,994.42
2022-11-06T10:48:50.689Z,994.35
2022-11-06T10:49:50.675Z,994.35
2022-11-06T10:50:50.697Z,994.32
2022-11-06T10:51:50.665Z,994.35
2022-11-06T10:52:50.655Z,994.36
2022-11-06T10:53:50.648Z,994.24
2022-11-06T10:54:50.679Z,994.37
2022-11-06T10:55:50.680Z,994.21
2022-11-06T10:56:50.635Z,994.29
2022-11-06T10:57:50.613Z,994.26
2022-11-06T10:58:50.681Z,994.19
2022-11-06T10:59:50.603Z,994.22
2022-11-06T11:00:50.717Z,994.17
2022-11-06T11:01:50.813Z,994.24
2022-11-06T11:02:50.589Z,994.15
2022-11-06T11:03:50.570Z,994.12
2022-11-06T11:04:55.315Z,994.09
2022-11-06T11:05:52.586Z,994.03
2022-11-06T11:06:50.559Z,994.05
2022-11-06T11:07:50.542Z,994.09
2022-11-06T11:08:50.544Z,994.09
2022-11-06T11:09:50.524Z,994.00
2022-11-06T11:11:04.289Z,994.02
2022-11-06T11:11:53.227Z,994.06
2022-11-06T11:12:50.505Z,994.04
2022-11-06T11:13:50.494Z,994.09
2022-11-06T11:14:50.485Z,994.06
2022-11-06T11:15:50.504Z,993.98
2022-11-06T11:16:50.498Z,994.03
2022-11-06T11:17:50.461Z,994.06
2022-11-06T11:18:50.454Z,994.05
2022-11-06T11:19:50.443Z,993.99
2022-11-06T11:20:50.453Z,993.97
2022-11-06T11:21:50.454Z,993.93
2022-11-06T11:22:50.468Z,993.95
2022-11-06T11:23:50.414Z,993.99
2022-11-06T11:24:50.404Z,993.86
2022-11-06T11:25:50.405Z,993.88
2022-11-06T11:26:50.413Z,993.89
2022-11-06T11:27:50.382Z,993.89
2022-11-06T11:28:50.444Z,993.79
2022-11-06T11:29:50.366Z,993.84
2022-11-06T11:30:50.366Z,993.81
2022-11-06T11:31:50.374Z,993.78
2022-11-06T11:32:50.352Z,993.83
2022-11-06T11:33:50.355Z,993.65
2022-11-06T11:34:55.334Z,993.70
2022-11-06T11:35:52.324Z,993.68
2022-11-06T11:36:50.330Z,993.69
2022-11-06T11:37:51.307Z,993.70
2022-11-06T11:38:50.300Z,993.66
2022-11-06T11:39:50.290Z,993.76
2022-11-06T11:40:50.292Z,993.76
2022-11-06T11:41:50.323Z,993.76
2022-11-06T11:42:50.269Z,993.71
2022-11-06T11:43:50.267Z,993.56
2022-11-06T11:44:50.248Z,993.63
2022-11-06T11:45:50.247Z,993.61
2022-11-06T11:46:50.273Z,993.60
2022-11-06T11:47:50.232Z,993.53
2022-11-06T11:48:50.221Z,993.54
2022-11-06T11:49:50.211Z,993.55
2022-11-06T11:50:50.211Z,993.63
2022-11-06T11:51:50.240Z,993.59
2022-11-06T11:52:50.201Z,993.49
2022-11-06T11:53:50.179Z,993.54
2022-11-06T11:54:50.187Z,993.45
2022-11-06T11:55:50.162Z,993.40
2022-11-06T11:57:04.149Z,993.43
2022-11-06T11:57:52.190Z,993.38
2022-11-06T11:58:51.160Z,993.33
2022-11-06T11:59:50.173Z,993.36
2022-11-06T12:00:50.131Z,993.32
2022-11-06T12:01:50.276Z,993.29
2022-11-06T12:02:50.194Z,993.25
2022-11-06T12:03:50.104Z,993.24
2022-11-06T12:04:50.110Z,993.15
2022-11-06T12:05:50.084Z,993.14
2022-11-06T12:06:50.084Z,993.13
2022-11-06T12:07:50.396Z,993.11
2022-11-06T12:08:50.065Z,993.14
2022-11-06T12:09:50.086Z,993.07
2022-11-06T12:10:50.048Z,993.07
2022-11-06T12:11:50.046Z,993.03
2022-11-06T12:12:50.065Z,993.00
2022-11-06T12:13:50.071Z,993.03
2022-11-06T12:14:50.021Z,993.09
2022-11-06T12:15:50.017Z,992.98
2022-11-06T12:16:50.004Z,993.02
2022-11-06T12:17:50.017Z,992.90
2022-11-06T12:18:52.446Z,992.92
2022-11-06T12:19:51.000Z,992.92
2022-11-06T12:20:49.971Z,992.86
2022-11-06T12:21:49.973Z,992.82
2022-11-06T12:22:49.977Z,992.82
2022-11-06T12:23:49.974Z,992.84
2022-11-06T12:24:49.944Z,992.76
2022-11-06T12:25:49.936Z,992.71
2022-11-06T12:26:49.950Z,992.69
2022-11-06T12:27:49.948Z,992.67
2022-11-06T12:28:49.911Z,992.65
2022-11-06T12:29:49.915Z,992.46
2022-11-06T12:30:49.894Z,992.54